sensor_id;sensor_type;location;lat;lon;timestamp;pressure;altitude;pressure_sealevel;temperature
79089;BMP280;68489;50.286;9.452;2024-03-02T00:01:06;96062.34;;;5.70
79089;BMP280;68489;50.286;9.452;2024-03-02T00:03:32;96056.22;;;5.73
79089;BMP280;68489;50.286;9.452;2024-03-02T00:05:58;96059.16;;;5.75
79089;BMP280;68489;50.286;9.452;2024-03-02T00:08:25;96059.16;;;5.75
79089;BMP280;68489;50.286;9.452;2024-03-02T00:10:57;96060.50;;;5.80
79089;BMP280;68489;50.286;9.452;2024-03-02T00:13:23;96059.00;;;5.79
79089;BMP280;68489;50.286;9.452;2024-03-02T00:15:53;96053.75;;;5.79
79089;BMP280;68489;50.286;9.452;2024-03-02T00:18:39;96051.56;;;5.77
79089;BMP280;68489;50.286;9.452;2024-03-02T00:21:06;96050.53;;;5.74
79089;BMP280;68489;50.286;9.452;2024-03-02T00:23:34;96054.94;;;5.78
79089;BMP280;68489;50.286;9.452;2024-03-02T00:26:00;96062.53;;;5.75
79089;BMP280;68489;50.286;9.452;2024-03-02T00:30:55;96060.34;;;5.74
79089;BMP280;68489;50.286;9.452;2024-03-02T00:33:21;96056.66;;;5.71
79089;BMP280;68489;50.286;9.452;2024-03-02T00:35:48;96060.44;;;5.70
79089;BMP280;68489;50.286;9.452;2024-03-02T00:38:14;96064.56;;;5.71
79089;BMP280;68489;50.286;9.452;2024-03-02T00:40:43;96062.34;;;5.70
79089;BMP280;68489;50.286;9.452;2024-03-02T00:43:42;96068.97;;;5.74
79089;BMP280;68489;50.286;9.452;2024-03-02T00:46:10;96061.28;;;5.67
79089;BMP280;68489;50.286;9.452;2024-03-02T00:48:36;96065.09;;;5.66
79089;BMP280;68489;50.286;9.452;2024-03-02T00:51:05;96069.53;;;5.69
79089;BMP280;68489;50.286;9.452;2024-03-02T00:53:31;96069.97;;;5.68
79089;BMP280;68489;50.286;9.452;2024-03-02T00:55:58;96066.56;;;5.67
79089;BMP280;68489;50.286;9.452;2024-03-02T00:58:24;96070.38;;;5.66
79089;BMP280;68489;50.286;9.452;2024-03-02T01:00:50;96069.09;;;5.71
79089;BMP280;68489;50.286;9.452;2024-03-02T01:03:15;96065.84;;;5.67
79089;BMP280;68489;50.286;9.452;2024-03-02T01:05:43;96064.22;;;5.60
79089;BMP280;68489;50.286;9.452;2024-03-02T01:08:09;96065.78;;;5.58
79089;BMP280;68489;50.286;9.452;2024-03-02T01:10:35;96076.47;;;5.54
79089;BMP280;68489;50.286;9.452;2024-03-02T01:13:00;96072.22;;;5.57
79089;BMP280;68489;50.286;9.452;2024-03-02T01:15:26;96074.44;;;5.58
79089;BMP280;68489;50.286;9.452;2024-03-02T01:17:51;96066.53;;;5.58
79089;BMP280;68489;50.286;9.452;2024-03-02T01:20:16;96074.13;;;5.56
79089;BMP280;68489;50.286;9.452;2024-03-02T01:22:42;96073.06;;;5.53
79089;BMP280;68489;50.286;9.452;2024-03-02T01:25:08;96063.06;;;5.48
79089;BMP280;68489;50.286;9.452;2024-03-02T01:27:34;96058.38;;;5.43
79089;BMP280;68489;50.286;9.452;2024-03-02T01:29:59;96055.00;;;5.43
79089;BMP280;68489;50.286;9.452;2024-03-02T01:32:25;96054.56;;;5.44
79089;BMP280;68489;50.286;9.452;2024-03-02T01:34:50;96055.00;;;5.43
79089;BMP280;68489;50.286;9.452;2024-03-02T01:37:15;96059.63;;;5.39
79089;BMP280;68489;50.286;9.452;2024-03-02T01:39:41;96056.06;;;5.33
79089;BMP280;68489;50.286;9.452;2024-03-02T01:42:06;96062.94;;;5.30
79089;BMP280;68489;50.286;9.452;2024-03-02T01:44:31;96058.94;;;5.25
79089;BMP280;68489;50.286;9.452;2024-03-02T01:46:57;96054.19;;;5.20
79089;BMP280;68489;50.286;9.452;2024-03-02T01:49:22;96050.94;;;5.16
79089;BMP280;68489;50.286;9.452;2024-03-02T01:51:48;96051.19;;;5.09
79089;BMP280;68489;50.286;9.452;2024-03-02T01:54:13;96047.19;;;5.04
79089;BMP280;68489;50.286;9.452;2024-03-02T01:56:39;96044.03;;;4.97
79089;BMP280;68489;50.286;9.452;2024-03-02T01:59:04;96052.91;;;4.90
79089;BMP280;68489;50.286;9.452;2024-03-02T02:01:29;96043.75;;;4.82
79089;BMP280;68489;50.286;9.452;2024-03-02T02:03:56;96046.47;;;4.78
79089;BMP280;68489;50.286;9.452;2024-03-02T02:06:21;96052.28;;;4.73
79089;BMP280;68489;50.286;9.452;2024-03-02T02:08:47;96047.97;;;4.67
79089;BMP280;68489;50.286;9.452;2024-03-02T02:11:15;96046.59;;;4.62
79089;BMP280;68489;50.286;9.452;2024-03-02T02:13:40;96054.28;;;4.56
79089;BMP280;68489;50.286;9.452;2024-03-02T02:16:07;96052.94;;;4.52
79089;BMP280;68489;50.286;9.452;2024-03-02T02:18:32;96052.28;;;4.48
79089;BMP280;68489;50.286;9.452;2024-03-02T02:20:58;96042.41;;;4.39
79089;BMP280;68489;50.286;9.452;2024-03-02T02:23:23;96045.16;;;4.36
79089;BMP280;68489;50.286;9.452;2024-03-02T02:25:48;96035.88;;;4.31
79089;BMP280;68489;50.286;9.452;2024-03-02T02:28:14;96042.28;;;4.30
79089;BMP280;68489;50.286;9.452;2024-03-02T02:30:39;96034.47;;;4.26
79089;BMP280;68489;50.286;9.452;2024-03-02T02:33:05;96033.84;;;4.22
79089;BMP280;68489;50.286;9.452;2024-03-02T02:35:30;96032.94;;;4.16
79089;BMP280;68489;50.286;9.452;2024-03-02T02:37:56;96031.97;;;4.10
79089;BMP280;68489;50.286;9.452;2024-03-02T02:40:22;96035.09;;;4.05
79089;BMP280;68489;50.286;9.452;2024-03-02T02:42:47;96035.19;;;4.01
79089;BMP280;68489;50.286;9.452;2024-03-02T02:45:13;96030.75;;;3.98
79089;BMP280;68489;50.286;9.452;2024-03-02T02:47:40;96027.09;;;3.96
79089;BMP280;68489;50.286;9.452;2024-03-02T02:50:09;96024.47;;;3.96
79089;BMP280;68489;50.286;9.452;2024-03-02T02:52:36;96023.00;;;3.95
79089;BMP280;68489;50.286;9.452;2024-03-02T02:55:04;96020.03;;;3.93
79089;BMP280;68489;50.286;9.452;2024-03-02T02:57:30;96013.22;;;3.95
79089;BMP280;68489;50.286;9.452;2024-03-02T03:00:00;96018.81;;;3.97
79089;BMP280;68489;50.286;9.452;2024-03-02T03:02:27;96010.44;;;3.99
79089;BMP280;68489;50.286;9.452;2024-03-02T03:04:53;96008.28;;;4.10
79089;BMP280;68489;50.286;9.452;2024-03-02T03:07:18;96002.09;;;4.17
79089;BMP280;68489;50.286;9.452;2024-03-02T03:09:43;95992.59;;;4.32
79089;BMP280;68489;50.286;9.452;2024-03-02T03:12:09;95997.69;;;4.39
79089;BMP280;68489;50.286;9.452;2024-03-02T03:14:34;96001.97;;;4.46
79089;BMP280;68489;50.286;9.452;2024-03-02T03:17:00;96000.31;;;4.52
79089;BMP280;68489;50.286;9.452;2024-03-02T03:19:26;96004.41;;;4.53
79089;BMP280;68489;50.286;9.452;2024-03-02T03:21:51;95996.41;;;4.56
79089;BMP280;68489;50.286;9.452;2024-03-02T03:24:16;96003.88;;;4.58
79089;BMP280;68489;50.286;9.452;2024-03-02T03:26:42;96001.97;;;4.58
79089;BMP280;68489;50.286;9.452;2024-03-02T03:29:07;96000.78;;;4.59
79089;BMP280;68489;50.286;9.452;2024-03-02T03:31:32;95993.47;;;4.54
79089;BMP280;68489;50.286;9.452;2024-03-02T03:33:57;95994.59;;;4.53
79089;BMP280;68489;50.286;9.452;2024-03-02T03:36:23;95994.59;;;4.53
79089;BMP280;68489;50.286;9.452;2024-03-02T03:38:49;95988.94;;;4.55
79089;BMP280;68489;50.286;9.452;2024-03-02T03:41:14;95991.25;;;4.53
79089;BMP280;68489;50.286;9.452;2024-03-02T03:43:40;95993.66;;;4.47
79089;BMP280;68489;50.286;9.452;2024-03-02T03:46:05;96002.50;;;4.41
79089;BMP280;68489;50.286;9.452;2024-03-02T03:48:31;96000.31;;;4.39
79089;BMP280;68489;50.286;9.452;2024-03-02T03:50:56;95998.94;;;4.34
79089;BMP280;68489;50.286;9.452;2024-03-02T03:53:22;96001.56;;;4.34
79089;BMP280;68489;50.286;9.452;2024-03-02T03:55:47;95997.47;;;4.33
79089;BMP280;68489;50.286;9.452;2024-03-02T03:58:14;95999.78;;;4.31
79089;BMP280;68489;50.286;9.452;2024-03-02T04:00:42;95994.94;;;4.30
79089;BMP280;68489;50.286;9.452;2024-03-02T04:03:07;96003.47;;;4.34
79089;BMP280;68489;50.286;9.452;2024-03-02T04:05:32;95997.47;;;4.33
79089;BMP280;68489;50.286;9.452;2024-03-02T04:07:58;95995.56;;;4.34
79089;BMP280;68489;50.286;9.452;2024-03-02T04:10:23;96005.03;;;4.31
79089;BMP280;68489;50.286;9.452;2024-03-02T04:12:49;95997.97;;;4.28
79089;BMP280;68489;50.286;9.452;2024-03-02T04:15:16;95992.59;;;4.19
79089;BMP280;68489;50.286;9.452;2024-03-02T04:17:41;95989.06;;;4.13
79089;BMP280;68489;50.286;9.452;2024-03-02T04:20:07;95988.91;;;4.04
79089;BMP280;68489;50.286;9.452;2024-03-02T04:22:33;95988.59;;;4.02
79089;BMP280;68489;50.286;9.452;2024-03-02T04:25:00;95990.28;;;3.96
79089;BMP280;68489;50.286;9.452;2024-03-02T04:27:25;96002.06;;;3.91
79089;BMP280;68489;50.286;9.452;2024-03-02T04:29:51;96006.75;;;3.83
79089;BMP280;68489;50.286;9.452;2024-03-02T04:32:16;95999.72;;;3.80
79089;BMP280;68489;50.286;9.452;2024-03-02T04:34:42;95997.63;;;3.75
79089;BMP280;68489;50.286;9.452;2024-03-02T04:37:08;96000.97;;;3.76
79089;BMP280;68489;50.286;9.452;2024-03-02T04:39:34;96010.44;;;3.73
79089;BMP280;68489;50.286;9.452;2024-03-02T04:42:00;96007.16;;;3.69
79089;BMP280;68489;50.286;9.452;2024-03-02T04:44:25;96003.81;;;3.69
79089;BMP280;68489;50.286;9.452;2024-03-02T04:46:50;96007.56;;;3.68
79089;BMP280;68489;50.286;9.452;2024-03-02T04:49:16;96004.09;;;3.71
79089;BMP280;68489;50.286;9.452;2024-03-02T04:51:41;96012.66;;;3.75
79089;BMP280;68489;50.286;9.452;2024-03-02T04:54:06;96006.09;;;3.79
79089;BMP280;68489;50.286;9.452;2024-03-02T04:56:32;96013.38;;;3.75
79089;BMP280;68489;50.286;9.452;2024-03-02T04:58:57;96009.56;;;3.76
79089;BMP280;68489;50.286;9.452;2024-03-02T05:01:22;96018.94;;;3.77
79089;BMP280;68489;50.286;9.452;2024-03-02T05:03:48;96013.38;;;3.75
79089;BMP280;68489;50.286;9.452;2024-03-02T05:06:14;96016.13;;;3.84
79089;BMP280;68489;50.286;9.452;2024-03-02T05:08:39;96015.28;;;3.87
79089;BMP280;68489;50.286;9.452;2024-03-02T05:11:04;96011.53;;;3.88
79089;BMP280;68489;50.286;9.452;2024-03-02T05:13:48;96016.56;;;3.96
79089;BMP280;68489;50.286;9.452;2024-03-02T05:16:13;96012.06;;;3.96
79089;BMP280;68489;50.286;9.452;2024-03-02T05:18:39;96014.16;;;4.01
79089;BMP280;68489;50.286;9.452;2024-03-02T05:21:04;96014.69;;;4.09
79089;BMP280;68489;50.286;9.452;2024-03-02T05:23:30;96016.50;;;4.12
79089;BMP280;68489;50.286;9.452;2024-03-02T05:25:56;96017.22;;;4.25
79089;BMP280;68489;50.286;9.452;2024-03-02T05:28:21;96020.28;;;4.24
79089;BMP280;68489;50.286;9.452;2024-03-02T05:30:46;96024.38;;;4.25
79089;BMP280;68489;50.286;9.452;2024-03-02T05:33:12;96022.81;;;4.27
79089;BMP280;68489;50.286;9.452;2024-03-02T05:35:38;96026.63;;;4.39
79089;BMP280;68489;50.286;9.452;2024-03-02T05:38:03;96040.06;;;4.41
79089;BMP280;68489;50.286;9.452;2024-03-02T05:40:28;96039.47;;;4.50
79089;BMP280;68489;50.286;9.452;2024-03-02T05:42:54;96041.25;;;4.53
79089;BMP280;68489;50.286;9.452;2024-03-02T05:45:19;96038.94;;;4.55
79089;BMP280;68489;50.286;9.452;2024-03-02T05:47:44;96029.56;;;4.54
79089;BMP280;68489;50.286;9.452;2024-03-02T05:50:10;96038.63;;;4.53
79089;BMP280;68489;50.286;9.452;2024-03-02T05:52:35;96042.31;;;4.55
79089;BMP280;68489;50.286;9.452;2024-03-02T05:55:00;96045.13;;;4.48
79089;BMP280;68489;50.286;9.452;2024-03-02T05:57:26;96036.41;;;4.39
79089;BMP280;68489;50.286;9.452;2024-03-02T06:00:12;96037.56;;;4.38
79089;BMP280;68489;50.286;9.452;2024-03-02T06:02:41;96039.78;;;4.39
79089;BMP280;68489;50.286;9.452;2024-03-02T06:05:06;96036.09;;;4.37
79089;BMP280;68489;50.286;9.452;2024-03-02T06:07:34;96037.88;;;4.40
79089;BMP280;68489;50.286;9.452;2024-03-02T06:10:00;96042.53;;;4.36
79089;BMP280;68489;50.286;9.452;2024-03-02T06:12:25;96043.56;;;4.51
79089;BMP280;68489;50.286;9.452;2024-03-02T06:14:50;96038.63;;;4.53
79089;BMP280;68489;50.286;9.452;2024-03-02T06:17:16;96037.03;;;4.55
79089;BMP280;68489;50.286;9.452;2024-03-02T06:19:41;96041.31;;;4.62
79089;BMP280;68489;50.286;9.452;2024-03-02T06:22:06;96035.47;;;4.58
79089;BMP280;68489;50.286;9.452;2024-03-02T06:24:36;96042.63;;;4.57
79089;BMP280;68489;50.286;9.452;2024-03-02T06:27:01;96041.75;;;4.61
79089;BMP280;68489;50.286;9.452;2024-03-02T06:29:26;96051.00;;;4.65
79089;BMP280;68489;50.286;9.452;2024-03-02T06:31:52;96054.91;;;4.73
79089;BMP280;68489;50.286;9.452;2024-03-02T06:34:17;96064.16;;;4.78
79089;BMP280;68489;50.286;9.452;2024-03-02T06:36:42;96065.13;;;4.84
79089;BMP280;68489;50.286;9.452;2024-03-02T06:39:07;96061.56;;;4.91
79089;BMP280;68489;50.286;9.452;2024-03-02T06:41:33;96061.97;;;4.89
79089;BMP280;68489;50.286;9.452;2024-03-02T06:43:59;96060.72;;;4.94
79089;BMP280;68489;50.286;9.452;2024-03-02T06:46:27;96062.34;;;5.00
79089;BMP280;68489;50.286;9.452;2024-03-02T06:48:52;96060.38;;;5.04
79089;BMP280;68489;50.286;9.452;2024-03-02T06:51:17;96070.22;;;5.13
79089;BMP280;68489;50.286;9.452;2024-03-02T06:53:43;96067.16;;;5.15
79089;BMP280;68489;50.286;9.452;2024-03-02T06:56:08;96071.19;;;5.19
79089;BMP280;68489;50.286;9.452;2024-03-02T06:58:34;96059.91;;;5.19
79089;BMP280;68489;50.286;9.452;2024-03-02T07:00:59;96072.09;;;5.25
79089;BMP280;68489;50.286;9.452;2024-03-02T07:03:27;96073.78;;;5.32
79089;BMP280;68489;50.286;9.452;2024-03-02T07:05:53;96076.63;;;5.38
79089;BMP280;68489;50.286;9.452;2024-03-02T07:08:18;96090.09;;;5.40
79089;BMP280;68489;50.286;9.452;2024-03-02T07:10:43;96092.31;;;5.41
79089;BMP280;68489;50.286;9.452;2024-03-02T07:13:09;96098.09;;;5.49
79089;BMP280;68489;50.286;9.452;2024-03-02T07:15:34;96094.72;;;5.48
79089;BMP280;68489;50.286;9.452;2024-03-02T07:18:15;96100.59;;;5.52
79089;BMP280;68489;50.286;9.452;2024-03-02T07:20:41;96103.44;;;5.58
79089;BMP280;68489;50.286;9.452;2024-03-02T07:23:07;96109.59;;;5.64
79089;BMP280;68489;50.286;9.452;2024-03-02T07:25:32;96109.59;;;5.64
79089;BMP280;68489;50.286;9.452;2024-03-02T07:27:57;96110.13;;;5.72
79089;BMP280;68489;50.286;9.452;2024-03-02T07:30:23;96102.94;;;5.72
79089;BMP280;68489;50.286;9.452;2024-03-02T07:32:50;96100.63;;;5.74
79089;BMP280;68489;50.286;9.452;2024-03-02T07:35:15;96101.69;;;5.77
79089;BMP280;68489;50.286;9.452;2024-03-02T07:37:41;96092.47;;;5.82
79089;BMP280;68489;50.286;9.452;2024-03-02T07:40:08;96094.13;;;5.88
79089;BMP280;68489;50.286;9.452;2024-03-02T07:42:42;96089.16;;;5.90
79089;BMP280;68489;50.286;9.452;2024-03-02T07:45:07;96095.75;;;5.95
79089;BMP280;68489;50.286;9.452;2024-03-02T07:47:34;96096.38;;;5.99
79089;BMP280;68489;50.286;9.452;2024-03-02T07:50:00;96099.94;;;6.05
79089;BMP280;68489;50.286;9.452;2024-03-02T07:52:25;96104.50;;;6.05
79089;BMP280;68489;50.286;9.452;2024-03-02T07:54:50;96101.56;;;6.12
79089;BMP280;68489;50.286;9.452;2024-03-02T07:57:16;96101.03;;;6.17
79089;BMP280;68489;50.286;9.452;2024-03-02T07:59:42;96106.13;;;6.11
79089;BMP280;68489;50.286;9.452;2024-03-02T08:02:08;96110.28;;;6.21
79089;BMP280;68489;50.286;9.452;2024-03-02T08:04:33;96111.31;;;6.15
79089;BMP280;68489;50.286;9.452;2024-03-02T08:06:58;96109.28;;;6.19
79089;BMP280;68489;50.286;9.452;2024-03-02T08:09:24;96100.03;;;6.23
79089;BMP280;68489;50.286;9.452;2024-03-02T08:11:49;96110.78;;;6.29
79089;BMP280;68489;50.286;9.452;2024-03-02T08:14:14;96114.16;;;6.30
79089;BMP280;68489;50.286;9.452;2024-03-02T08:16:40;96112.97;;;6.31
79089;BMP280;68489;50.286;9.452;2024-03-02T08:19:06;96114.47;;;6.32
79089;BMP280;68489;50.286;9.452;2024-03-02T08:21:31;96111.22;;;6.37
79089;BMP280;68489;50.286;9.452;2024-03-02T08:24:00;96113.88;;;6.37
79089;BMP280;68489;50.286;9.452;2024-03-02T08:26:25;96113.22;;;6.45
79089;BMP280;68489;50.286;9.452;2024-03-02T08:28:54;96107.34;;;6.51
79089;BMP280;68489;50.286;9.452;2024-03-02T08:31:19;96101.22;;;6.54
79089;BMP280;68489;50.286;9.452;2024-03-02T08:33:44;96109.44;;;6.56
79089;BMP280;68489;50.286;9.452;2024-03-02T08:36:10;96104.16;;;6.56
79089;BMP280;68489;50.286;9.452;2024-03-02T08:38:35;96100.50;;;6.62
79089;BMP280;68489;50.286;9.452;2024-03-02T08:41:00;96102.88;;;6.69
79089;BMP280;68489;50.286;9.452;2024-03-02T08:43:26;96109.50;;;6.74
79089;BMP280;68489;50.286;9.452;2024-03-02T08:45:51;96111.25;;;6.77
79089;BMP280;68489;50.286;9.452;2024-03-02T08:48:17;96113.03;;;6.80
79089;BMP280;68489;50.286;9.452;2024-03-02T08:50:42;96112.31;;;6.89
79089;BMP280;68489;50.286;9.452;2024-03-02T08:53:08;96109.66;;;6.89
79089;BMP280;68489;50.286;9.452;2024-03-02T08:55:33;96116.75;;;7.01
79089;BMP280;68489;50.286;9.452;2024-03-02T08:57:58;96113.97;;;6.95
79089;BMP280;68489;50.286;9.452;2024-03-02T09:00:24;96128.06;;;7.02
79089;BMP280;68489;50.286;9.452;2024-03-02T09:02:50;96124.28;;;7.12
79089;BMP280;68489;50.286;9.452;2024-03-02T09:05:15;96131.03;;;7.22
79089;BMP280;68489;50.286;9.452;2024-03-02T09:07:41;96129.75;;;7.36
79089;BMP280;68489;50.286;9.452;2024-03-02T09:10:07;96132.41;;;7.45
79089;BMP280;68489;50.286;9.452;2024-03-02T09:12:33;96138.84;;;7.62
79089;BMP280;68489;50.286;9.452;2024-03-02T09:15:02;96132.94;;;7.86
79089;BMP280;68489;50.286;9.452;2024-03-02T09:17:31;96128.22;;;8.08
79089;BMP280;68489;50.286;9.452;2024-03-02T09:19:56;96139.94;;;8.35
79089;BMP280;68489;50.286;9.452;2024-03-02T09:22:22;96138.59;;;8.39
79089;BMP280;68489;50.286;9.452;2024-03-02T09:24:48;96141.19;;;8.58
79089;BMP280;68489;50.286;9.452;2024-03-02T09:27:13;96140.91;;;8.80
79089;BMP280;68489;50.286;9.452;2024-03-02T09:29:39;96137.03;;;8.90
79089;BMP280;68489;50.286;9.452;2024-03-02T09:32:05;96137.50;;;9.12
79089;BMP280;68489;50.286;9.452;2024-03-02T09:34:31;96138.50;;;9.39
79089;BMP280;68489;50.286;9.452;2024-03-02T09:36:56;96131.31;;;9.54
79089;BMP280;68489;50.286;9.452;2024-03-02T09:39:22;96138.47;;;9.63
79089;BMP280;68489;50.286;9.452;2024-03-02T09:41:48;96139.84;;;9.58
79089;BMP280;68489;50.286;9.452;2024-03-02T09:44:14;96142.41;;;9.68
79089;BMP280;68489;50.286;9.452;2024-03-02T09:46:39;96136.66;;;9.69
79089;BMP280;68489;50.286;9.452;2024-03-02T09:49:04;96135.84;;;9.78
79089;BMP280;68489;50.286;9.452;2024-03-02T09:51:31;96137.38;;;9.84
79089;BMP280;68489;50.286;9.452;2024-03-02T09:53:56;96147.63;;;9.92
79089;BMP280;68489;50.286;9.452;2024-03-02T09:56:21;96141.50;;;10.00
79089;BMP280;68489;50.286;9.452;2024-03-02T09:58:47;96146.38;;;10.17
79089;BMP280;68489;50.286;9.452;2024-03-02T10:01:12;96150.19;;;10.30
79089;BMP280;68489;50.286;9.452;2024-03-02T10:03:38;96142.38;;;10.27
79089;BMP280;68489;50.286;9.452;2024-03-02T10:06:36;96141.13;;;10.22
79089;BMP280;68489;50.286;9.452;2024-03-02T10:09:02;96148.63;;;10.24
79089;BMP280;68489;50.286;9.452;2024-03-02T10:11:31;96143.59;;;10.26
79089;BMP280;68489;50.286;9.452;2024-03-02T10:14:08;96140.94;;;10.26
79089;BMP280;68489;50.286;9.452;2024-03-02T10:16:36;96143.59;;;10.26
79089;BMP280;68489;50.286;9.452;2024-03-02T10:21:40;96133.25;;;10.28
79089;BMP280;68489;50.286;9.452;2024-03-02T10:24:07;96130.41;;;10.31
79089;BMP280;68489;50.286;9.452;2024-03-02T10:26:32;96128.84;;;10.40
79089;BMP280;68489;50.286;9.452;2024-03-02T10:28:57;96133.88;;;10.37
79089;BMP280;68489;50.286;9.452;2024-03-02T10:31:25;96127.25;;;10.48
79089;BMP280;68489;50.286;9.452;2024-03-02T10:33:54;96131.19;;;10.52
79089;BMP280;68489;50.286;9.452;2024-03-02T10:36:20;96140.97;;;10.61
79089;BMP280;68489;50.286;9.452;2024-03-02T10:38:46;96131.72;;;10.56
79089;BMP280;68489;50.286;9.452;2024-03-02T10:41:16;96132.72;;;10.59
79089;BMP280;68489;50.286;9.452;2024-03-02T10:43:42;96132.25;;;10.75
79089;BMP280;68489;50.286;9.452;2024-03-02T10:46:08;96131.84;;;10.82
79089;BMP280;68489;50.286;9.452;2024-03-02T10:48:35;96131.16;;;10.87
79089;BMP280;68489;50.286;9.452;2024-03-02T10:51:00;96129.31;;;10.94
79089;BMP280;68489;50.286;9.452;2024-03-02T10:53:27;96126.25;;;11.01
79089;BMP280;68489;50.286;9.452;2024-03-02T10:55:57;96126.13;;;11.10
79089;BMP280;68489;50.286;9.452;2024-03-02T10:58:31;96122.72;;;11.09
79089;BMP280;68489;50.286;9.452;2024-03-02T11:01:00;96125.50;;;11.21
79089;BMP280;68489;50.286;9.452;2024-03-02T11:03:26;96120.19;;;11.21
79089;BMP280;68489;50.286;9.452;2024-03-02T11:05:52;96125.31;;;11.24
79089;BMP280;68489;50.286;9.452;2024-03-02T11:08:18;96119.56;;;11.31
79089;BMP280;68489;50.286;9.452;2024-03-02T11:10:52;96119.25;;;11.44
79089;BMP280;68489;50.286;9.452;2024-03-02T11:13:25;96116.84;;;11.46
79089;BMP280;68489;50.286;9.452;2024-03-02T11:15:55;96118.56;;;11.49
79089;BMP280;68489;50.286;9.452;2024-03-02T11:18:24;96111.09;;;11.53
79089;BMP280;68489;50.286;9.452;2024-03-02T11:20:50;96112.09;;;11.56
79089;BMP280;68489;50.286;9.452;2024-03-02T11:23:15;96101.91;;;11.54
79089;BMP280;68489;50.286;9.452;2024-03-02T11:25:40;96105.38;;;11.60
79089;BMP280;68489;50.286;9.452;2024-03-02T11:28:06;96107.53;;;11.62
79089;BMP280;68489;50.286;9.452;2024-03-02T11:33:05;96107.41;;;11.71
79089;BMP280;68489;50.286;9.452;2024-03-02T11:35:34;96100.59;;;11.70
79089;BMP280;68489;50.286;9.452;2024-03-02T11:38:01;96098.41;;;11.69
79089;BMP280;68489;50.286;9.452;2024-03-02T11:40:28;96092.59;;;11.70
79089;BMP280;68489;50.286;9.452;2024-03-02T11:42:54;96086.13;;;11.77
79089;BMP280;68489;50.286;9.452;2024-03-02T11:45:24;96082.31;;;11.83
79089;BMP280;68489;50.286;9.452;2024-03-02T11:47:50;96087.66;;;11.83
79089;BMP280;68489;50.286;9.452;2024-03-02T11:50:16;96089.31;;;11.81
79089;BMP280;68489;50.286;9.452;2024-03-02T11:52:53;96088.16;;;11.87
79089;BMP280;68489;50.286;9.452;2024-03-02T11:55:19;96085.03;;;11.89
79089;BMP280;68489;50.286;9.452;2024-03-02T11:57:45;96085.75;;;11.89
79089;BMP280;68489;50.286;9.452;2024-03-02T12:00:17;96075.41;;;11.97
79089;BMP280;68489;50.286;9.452;2024-03-02T12:02:43;96076.78;;;11.93
79089;BMP280;68489;50.286;9.452;2024-03-02T12:05:16;96072.00;;;11.97
79089;BMP280;68489;50.286;9.452;2024-03-02T12:07:42;96069.09;;;12.00
79089;BMP280;68489;50.286;9.452;2024-03-02T12:10:08;96063.56;;;11.98
79089;BMP280;68489;50.286;9.452;2024-03-02T12:12:33;96059.66;;;11.99
79089;BMP280;68489;50.286;9.452;2024-03-02T12:14:59;96058.72;;;12.02
79089;BMP280;68489;50.286;9.452;2024-03-02T12:17:25;96063.06;;;12.00
79089;BMP280;68489;50.286;9.452;2024-03-02T12:19:51;96061.56;;;11.93
79089;BMP280;68489;50.286;9.452;2024-03-02T12:22:16;96058.13;;;11.87
79089;BMP280;68489;50.286;9.452;2024-03-02T12:24:42;96059.50;;;11.77
79089;BMP280;68489;50.286;9.452;2024-03-02T12:27:11;96055.31;;;11.70
79089;BMP280;68489;50.286;9.452;2024-03-02T12:29:38;96049.72;;;11.62
79089;BMP280;68489;50.286;9.452;2024-03-02T12:32:05;96049.19;;;11.58
79089;BMP280;68489;50.286;9.452;2024-03-02T12:34:30;96041.41;;;11.55
79089;BMP280;68489;50.286;9.452;2024-03-02T12:36:56;96031.50;;;11.55
79089;BMP280;68489;50.286;9.452;2024-03-02T12:39:21;96033.97;;;11.59
79089;BMP280;68489;50.286;9.452;2024-03-02T12:41:49;96027.94;;;11.64
79089;BMP280;68489;50.286;9.452;2024-03-02T12:44:16;96031.59;;;11.67
79089;BMP280;68489;50.286;9.452;2024-03-02T12:46:41;96030.44;;;11.73
79089;BMP280;68489;50.286;9.452;2024-03-02T12:49:09;96037.97;;;11.75
79089;BMP280;68489;50.286;9.452;2024-03-02T12:51:36;96027.56;;;11.77
79089;BMP280;68489;50.286;9.452;2024-03-02T12:54:02;96020.28;;;11.77
79089;BMP280;68489;50.286;9.452;2024-03-02T12:56:29;96022.75;;;11.81
79089;BMP280;68489;50.286;9.452;2024-03-02T12:58:54;96008.47;;;11.84
79089;BMP280;68489;50.286;9.452;2024-03-02T13:01:20;96015.31;;;11.91
79089;BMP280;68489;50.286;9.452;2024-03-02T13:03:48;96018.19;;;11.93
79089;BMP280;68489;50.286;9.452;2024-03-02T13:06:13;96020.13;;;11.92
79089;BMP280;68489;50.286;9.452;2024-03-02T13:08:39;96007.34;;;11.91
79089;BMP280;68489;50.286;9.452;2024-03-02T13:11:05;96005.84;;;11.89
79089;BMP280;68489;50.286;9.452;2024-03-02T13:13:32;96004.69;;;11.96
79089;BMP280;68489;50.286;9.452;2024-03-02T13:15:57;96003.22;;;11.95
79089;BMP280;68489;50.286;9.452;2024-03-02T13:18:23;95999.81;;;11.95
79089;BMP280;68489;50.286;9.452;2024-03-02T13:20:48;96005.63;;;11.93
79089;BMP280;68489;50.286;9.452;2024-03-02T13:23:14;96003.69;;;11.94
79089;BMP280;68489;50.286;9.452;2024-03-02T13:25:39;95994.03;;;11.96
79089;BMP280;68489;50.286;9.452;2024-03-02T13:28:05;95991.88;;;12.00
79089;BMP280;68489;50.286;9.452;2024-03-02T13:30:31;95990.69;;;12.01
79089;BMP280;68489;50.286;9.452;2024-03-02T13:32:57;96002.06;;;12.02
79089;BMP280;68489;50.286;9.452;2024-03-02T13:35:22;95992.41;;;12.04
79089;BMP280;68489;50.286;9.452;2024-03-02T13:37:47;95991.88;;;12.06
79089;BMP280;68489;50.286;9.452;2024-03-02T13:40:14;95992.88;;;12.08
79089;BMP280;68489;50.286;9.452;2024-03-02T13:42:45;95989.94;;;12.06
79089;BMP280;68489;50.286;9.452;2024-03-02T13:45:11;95988.75;;;12.07
79089;BMP280;68489;50.286;9.452;2024-03-02T13:47:36;95990.69;;;12.07
79089;BMP280;68489;50.286;9.452;2024-03-02T13:50:02;95984.88;;;12.08
79089;BMP280;68489;50.286;9.452;2024-03-02T13:52:27;95979.81;;;12.10
79089;BMP280;68489;50.286;9.452;2024-03-02T13:54:53;95984.44;;;12.10
79089;BMP280;68489;50.286;9.452;2024-03-02T13:57:18;95983.44;;;12.07
79089;BMP280;68489;50.286;9.452;2024-03-02T13:59:45;95974.50;;;12.10
79089;BMP280;68489;50.286;9.452;2024-03-02T14:02:11;95978.41;;;12.15
79089;BMP280;68489;50.286;9.452;2024-03-02T14:04:37;95977.66;;;12.14
79089;BMP280;68489;50.286;9.452;2024-03-02T14:07:04;95981.28;;;12.11
79089;BMP280;68489;50.286;9.452;2024-03-02T14:09:32;95979.09;;;12.10
79089;BMP280;68489;50.286;9.452;2024-03-02T14:11:57;95982.25;;;12.14
79089;BMP280;68489;50.286;9.452;2024-03-02T14:14:23;95979.59;;;12.14
79089;BMP280;68489;50.286;9.452;2024-03-02T14:16:48;95982.00;;;12.12
79089;BMP280;68489;50.286;9.452;2024-03-02T14:19:14;95974.22;;;12.08